Time;durP1;ratioP1;P1;durP2;ratioP2;P2;SDS_P1;SDS_P2;PMS_P1;PMS_P2;Temp;Humidity;BMP_temperature;BMP_pressure;BME280_temperature;BME280_humidity;BME280_pressure;Samples;Min_cycle;Max_cycle;Signal;HPM_P1;HPM_P2
2022/06/25 00:01:34;;;;;;;7.53;4.22;;;;;;;19.17;59.86;100348.38;1757958;79;21113;-49
2022/06/25 00:04:00;;;;;;;7.95;4.12;;;;;;;19.18;59.96;100350.86;1731888;81;21058;-49
2022/06/25 00:06:27;;;;;;;9.50;4.65;;;;;;;19.12;59.84;100353.72;1776822;79;21065;-49
2022/06/25 00:08:55;;;;;;;5.78;3.72;;;;;;;19.11;59.93;100363.23;1766089;80;20999;-49
2022/06/25 00:14:10;;;;;;;6.33;3.83;;;;;;;19.10;59.87;100353.59;1772909;80;21090;-49
2022/06/25 00:16:37;;;;;;;6.25;3.80;;;;;;;19.08;59.84;100356.92;1759075;79;21126;-50
2022/06/25 00:19:04;;;;;;;7.08;4.22;;;;;;;19.04;59.98;100356.45;1765959;80;21373;-49
2022/06/25 00:21:31;;;;;;;6.12;3.87;;;;;;;18.99;60.35;100354.01;1762110;79;21121;-49
2022/06/25 00:23:57;;;;;;;9.35;4.15;;;;;;;18.93;60.65;100352.37;1764379;79;21139;-50
2022/06/25 00:26:25;;;;;;;9.03;4.35;;;;;;;18.90;61.03;100357.25;1768461;79;21093;-49
2022/06/25 00:28:51;;;;;;;7.22;3.95;;;;;;;18.90;60.94;100355.91;1769041;79;21047;-49
2022/06/25 00:31:18;;;;;;;7.72;3.92;;;;;;;18.96;60.96;100357.84;1710146;82;21125;-49
2022/06/25 00:33:45;;;;;;;6.20;3.60;;;;;;;19.00;60.98;100359.16;1774770;79;21149;-49
2022/06/25 00:36:11;;;;;;;6.40;4.15;;;;;;;19.00;60.54;100353.83;1757148;79;21102;-52
2022/06/25 00:38:38;;;;;;;8.05;4.15;;;;;;;19.03;60.36;100358.81;1772507;79;21078;-49
2022/06/25 00:41:04;;;;;;;10.15;4.70;;;;;;;19.03;60.48;100353.48;1748343;79;21110;-48
2022/06/25 00:43:31;;;;;;;6.92;3.25;;;;;;;19.02;60.47;100358.98;1749631;79;21059;-49
2022/06/25 00:45:58;;;;;;;6.37;3.77;;;;;;;19.00;60.18;100353.83;1760419;80;21068;-49
2022/06/25 00:48:25;;;;;;;7.65;4.12;;;;;;;18.94;60.05;100354.53;1760551;79;21145;-49
2022/06/25 00:50:52;;;;;;;6.37;3.27;;;;;;;18.88;60.49;100357.94;1756680;79;21442;-49
2022/06/25 00:53:19;;;;;;;6.97;3.77;;;;;;;18.83;60.47;100360.27;1754509;80;21062;-49
2022/06/25 00:55:47;;;;;;;7.55;3.98;;;;;;;18.78;60.79;100360.80;1761299;79;21530;-49
2022/06/25 00:58:14;;;;;;;5.40;3.37;;;;;;;18.74;61.17;100361.66;1753310;79;21130;-49
2022/06/25 01:00:40;;;;;;;7.37;3.77;;;;;;;18.75;61.32;100359.81;1762176;79;21118;-48
2022/06/25 01:03:07;;;;;;;6.00;3.67;;;;;;;18.81;61.23;100359.11;1727330;81;21071;-49
2022/06/25 01:05:34;;;;;;;7.40;4.12;;;;;;;18.85;61.31;100365.77;1769978;79;20976;-49
2022/06/25 01:08:00;;;;;;;6.55;3.58;;;;;;;18.85;61.38;100359.62;1757552;79;21542;-49
2022/06/25 01:10:27;;;;;;;7.00;4.22;;;;;;;18.84;61.27;100361.43;1753795;79;21545;-51
2022/06/25 01:12:54;;;;;;;9.50;3.90;;;;;;;18.81;60.72;100355.12;1749265;79;21490;-49
2022/06/25 01:15:20;;;;;;;8.10;4.20;;;;;;;18.78;60.60;100361.28;1743261;80;21046;-49
2022/06/25 01:17:52;;;;;;;11.70;3.98;;;;;;;18.73;60.63;100363.16;1762846;79;21035;-49
2022/06/25 01:20:23;;;;;;;6.47;3.60;;;;;;;18.70;60.74;100355.52;1769284;79;21105;-49
2022/06/25 01:22:51;;;;;;;7.33;3.72;;;;;;;18.66;60.82;100355.52;1704951;82;21008;-49
2022/06/25 01:25:18;;;;;;;11.35;4.00;;;;;;;18.66;60.74;100359.04;1729724;82;21144;-51
2022/06/25 01:27:45;;;;;;;6.37;4.20;;;;;;;18.65;60.78;100354.70;1757377;79;21055;-49
2022/06/25 01:30:13;;;;;;;8.35;3.92;;;;;;;18.64;60.74;100354.37;1738958;79;21074;-48
2022/06/25 01:32:39;;;;;;;9.08;3.92;;;;;;;18.67;60.80;100355.86;1762236;79;21035;-49
2022/06/25 01:35:10;;;;;;;8.50;4.85;;;;;;;18.73;60.90;100360.50;1751609;80;21129;-49
2022/06/25 01:37:37;;;;;;;8.15;3.80;;;;;;;18.78;60.89;100353.28;1743683;80;21165;-49
2022/06/25 01:40:05;;;;;;;6.08;3.67;;;;;;;18.80;60.72;100363.28;1701717;82;21150;-51
2022/06/25 01:45:17;;;;;;;6.75;3.87;;;;;;;18.76;60.57;100364.12;1709080;82;21125;-49
2022/06/25 01:47:45;;;;;;;12.30;3.92;;;;;;;18.67;60.58;100367.34;1769581;79;21059;-48
2022/06/25 01:50:11;;;;;;;8.40;4.10;;;;;;;18.54;60.77;100369.75;1767619;80;21140;-49
2022/06/25 01:52:39;;;;;;;6.40;3.90;;;;;;;18.42;60.98;100367.16;1765031;79;21148;-49
2022/06/25 01:55:07;;;;;;;5.92;3.72;;;;;;;18.32;61.12;100379.36;1767273;79;21580;-49
2022/06/25 01:57:36;;;;;;;5.80;3.62;;;;;;;18.22;61.55;100380.08;1766607;79;21000;-50
2022/06/25 02:00:08;;;;;;;6.58;3.70;;;;;;;18.21;61.75;100383.25;1770340;79;21118;-49
2022/06/25 02:02:38;;;;;;;7.62;4.05;;;;;;;18.26;61.74;100378.74;1770027;80;21114;-49
2022/06/25 02:05:06;;;;;;;5.85;3.92;;;;;;;18.34;61.52;100380.86;1764383;80;21090;-49
2022/06/25 02:07:32;;;;;;;6.55;3.40;;;;;;;18.41;61.43;100382.33;1751589;79;20991;-49
2022/06/25 02:09:59;;;;;;;7.17;4.05;;;;;;;18.46;61.67;100376.45;1767252;79;21027;-49
2022/06/25 02:12:26;;;;;;;8.28;4.50;;;;;;;18.43;61.66;100384.31;1756084;80;21062;-49
2022/06/25 02:14:52;;;;;;;7.70;4.45;;;;;;;18.41;61.35;100386.80;1754145;80;21157;-49
2022/06/25 02:17:19;;;;;;;8.38;4.20;;;;;;;18.37;61.14;100383.19;1767480;80;21468;-49
2022/06/25 02:19:46;;;;;;;7.33;4.10;;;;;;;18.36;61.33;100384.17;1765192;79;21497;-49
2022/06/25 02:22:14;;;;;;;7.10;3.90;;;;;;;18.34;61.49;100383.52;1772534;79;21030;-49
2022/06/25 02:24:42;;;;;;;6.95;3.50;;;;;;;18.29;61.61;100383.22;1774136;80;21172;-49
2022/06/25 02:27:10;;;;;;;6.25;3.80;;;;;;;18.28;61.73;100380.22;1778528;80;21121;-49
2022/06/25 02:29:37;;;;;;;6.90;3.33;;;;;;;18.31;61.72;100382.53;1764943;79;21008;-49
2022/06/25 02:32:05;;;;;;;9.05;3.42;;;;;;;18.42;61.57;100383.15;1756924;79;21058;-49
2022/06/25 02:34:31;;;;;;;5.90;3.50;;;;;;;18.50;61.85;100383.11;1767584;79;21102;-49
2022/06/25 02:36:58;;;;;;;7.15;3.67;;;;;;;18.51;61.86;100374.95;1768333;80;20996;-49
2022/06/25 02:39:26;;;;;;;7.30;3.10;;;;;;;18.55;61.75;100376.24;1750532;80;21126;-49
2022/06/25 02:41:53;;;;;;;6.28;3.25;;;;;;;18.58;61.34;100379.08;1756434;80;21058;-49
2022/06/25 02:44:20;;;;;;;6.05;3.37;;;;;;;18.61;61.18;100375.21;1753979;80;21043;-49
2022/06/25 02:46:48;;;;;;;6.22;3.37;;;;;;;18.64;60.77;100373.53;1763689;80;21008;-49
2022/06/25 02:49:15;;;;;;;5.37;2.75;;;;;;;18.65;60.39;100374.69;1758337;81;21047;-49
2022/06/25 02:51:41;;;;;;;5.83;3.40;;;;;;;18.66;59.87;100377.70;1756107;80;21118;-49
2022/06/25 02:54:10;;;;;;;6.22;3.47;;;;;;;18.68;59.84;100376.19;1748188;80;21074;-49
2022/06/25 02:59:11;;;;;;;8.48;3.15;;;;;;;18.68;59.66;100389.00;1719650;81;21047;-49
2022/06/25 03:01:40;;;;;;;7.83;3.05;;;;;;;18.70;59.77;100386.98;1755254;80;21470;-49
2022/06/25 03:04:06;;;;;;;11.05;3.33;;;;;;;18.76;60.01;100388.11;1753383;80;21747;-49
2022/06/25 03:06:33;;;;;;;8.30;3.20;;;;;;;18.88;59.30;100392.59;1760967;80;21087;-49
2022/06/25 03:09:01;;;;;;;5.85;2.90;;;;;;;18.96;58.99;100386.36;1753327;80;21165;-49
2022/06/25 03:11:28;;;;;;;5.90;3.22;;;;;;;19.00;59.04;100391.16;1750530;80;21106;-49
2022/06/25 03:13:55;;;;;;;6.37;3.17;;;;;;;19.03;58.59;100390.81;1763042;80;21038;-49
2022/06/25 03:16:22;;;;;;;7.35;3.40;;;;;;;19.07;58.58;100388.10;1752853;79;21128;-49
2022/06/25 03:18:50;;;;;;;6.40;3.30;;;;;;;19.12;58.69;100395.06;1750778;80;21073;-49
2022/06/25 03:21:29;;;;;;;6.15;3.80;;;;;;;19.16;58.67;100402.20;1749245;81;21060;-49
2022/06/25 03:24:00;;;;;;;9.23;3.70;;;;;;;19.17;59.29;100405.72;1759387;80;21046;-49
2022/06/25 03:26:26;;;;;;;7.05;3.33;;;;;;;19.19;59.86;100411.18;1758006;80;21066;-49
2022/06/25 03:28:56;;;;;;;5.28;3.25;;;;;;;19.21;59.94;100409.67;1751353;80;21128;-49
2022/06/25 03:31:23;;;;;;;5.35;2.83;;;;;;;19.27;59.12;100403.63;1745271;80;21057;-49
2022/06/25 03:33:51;;;;;;;6.45;2.80;;;;;;;19.36;58.51;100399.87;1757590;80;21204;-49
2022/06/25 03:36:19;;;;;;;5.25;2.90;;;;;;;19.44;57.97;100403.80;1750143;80;21090;-49
2022/06/25 03:38:47;;;;;;;6.70;3.22;;;;;;;19.50;58.06;100406.25;1746485;80;21131;-49
2022/06/25 03:41:32;;;;;;;6.50;3.15;;;;;;;19.57;57.52;100410.36;1748356;81;21229;-49
2022/06/25 03:44:00;;;;;;;6.33;3.47;;;;;;;19.60;57.06;100404.17;1701025;82;21568;-49
2022/06/25 03:46:27;;;;;;;8.60;3.52;;;;;;;19.68;56.68;100409.92;1753054;81;21130;-49
2022/06/25 03:48:53;;;;;;;6.30;3.40;;;;;;;19.72;56.58;100408.56;1752799;80;21111;-49
2022/06/25 03:51:39;;;;;;;7.23;2.77;;;;;;;19.76;56.25;100413.88;1756395;80;21106;-49
2022/06/25 03:54:06;;;;;;;6.83;3.00;;;;;;;19.78;56.58;100415.03;1753218;80;21226;-49
2022/06/25 03:56:33;;;;;;;7.53;3.05;;;;;;;19.80;56.68;100419.68;1753083;80;20993;-49
2022/06/25 03:59:00;;;;;;;5.53;2.60;;;;;;;19.81;56.42;100422.17;1749005;81;21114;-49
2022/06/25 04:01:28;;;;;;;5.75;3.25;;;;;;;19.84;56.47;100421.81;1748027;80;21046;-49
2022/06/25 04:03:55;;;;;;;5.20;2.50;;;;;;;19.86;56.07;100421.11;1755183;81;21054;-49
2022/06/25 04:06:23;;;;;;;6.08;3.05;;;;;;;19.89;55.77;100425.77;1753913;81;21219;-49
2022/06/25 04:08:52;;;;;;;5.55;2.92;;;;;;;19.90;55.91;100424.77;1748007;80;21058;-49
2022/06/25 04:11:20;;;;;;;6.35;3.20;;;;;;;19.89;56.07;100430.62;1747228;80;21079;-49
2022/06/25 04:13:55;;;;;;;6.08;3.30;;;;;;;19.92;55.33;100433.41;1751623;80;21227;-49
2022/06/25 04:16:23;;;;;;;5.45;2.83;;;;;;;19.93;55.50;100430.56;1747821;81;21059;-49
2022/06/25 04:18:50;;;;;;;5.42;3.00;;;;;;;19.95;55.50;100429.05;1753600;81;21078;-48
2022/06/25 04:21:18;;;;;;;5.60;3.08;;;;;;;19.98;55.11;100439.36;1757271;80;21631;-49
2022/06/25 04:23:45;;;;;;;5.67;2.90;;;;;;;19.98;55.13;100432.17;1748503;81;21078;-49
2022/06/25 04:26:14;;;;;;;8.40;3.27;;;;;;;19.99;55.27;100437.84;1753081;80;21027;-49
2022/06/25 04:31:32;;;;;;;4.97;2.65;;;;;;;20.06;55.58;100445.96;1748170;80;21144;-49
2022/06/25 04:33:59;;;;;;;6.47;3.17;;;;;;;20.11;55.86;100448.91;1733392;81;22047;-49
2022/06/25 04:36:26;;;;;;;5.47;2.98;;;;;;;20.14;55.79;100456.56;1749805;80;21598;-49
2022/06/25 04:38:55;;;;;;;6.55;3.20;;;;;;;20.19;55.42;100459.51;1708528;81;21131;-49
2022/06/25 04:41:22;;;;;;;7.80;3.35;;;;;;;20.25;55.80;100463.79;1760919;80;21054;-49
2022/06/25 04:43:50;;;;;;;11.05;2.92;;;;;;;20.31;55.64;100467.04;1761829;79;22162;-49
2022/06/25 04:46:19;;;;;;;6.10;3.27;;;;;;;20.36;55.89;100470.02;1757899;80;21336;-49
2022/06/25 04:48:46;;;;;;;6.03;3.22;;;;;;;20.41;55.86;100466.28;1766956;80;20992;-49
2022/06/25 04:51:28;;;;;;;4.85;2.62;;;;;;;20.47;55.05;100460.69;1768679;79;21137;-49
2022/06/25 04:53:55;;;;;;;6.47;3.40;;;;;;;20.51;54.99;100461.96;1772236;79;21534;-49
2022/06/25 04:56:27;;;;;;;6.30;3.42;;;;;;;20.53;55.49;100464.78;1756792;79;22267;-49
2022/06/25 04:58:54;;;;;;;6.30;3.33;;;;;;;20.58;55.51;100474.41;1766013;79;21051;-49
2022/06/25 05:01:39;;;;;;;;;;;;;;;20.65;54.98;100468.36;1762185;79;21160;-49
2022/06/25 05:04:07;;;;;;;8.70;3.30;;;;;;;20.70;54.11;100461.94;1763636;79;20227;-49
2022/06/25 05:06:33;;;;;;;6.47;2.92;;;;;;;20.73;54.37;100460.23;1768678;79;20991;-49
2022/06/25 05:09:00;;;;;;;5.50;3.00;;;;;;;20.77;54.38;100466.84;1735574;80;21141;-49
2022/06/25 05:11:27;;;;;;;5.10;3.08;;;;;;;20.82;54.54;100459.09;1766541;79;21058;-49
2022/06/25 05:13:54;;;;;;;4.65;2.65;;;;;;;20.88;54.32;100462.36;1710212;82;21056;-49
2022/06/25 05:16:20;;;;;;;8.25;2.90;;;;;;;20.94;54.45;100460.25;1705018;82;21545;-49
2022/06/25 05:18:48;;;;;;;5.28;2.80;;;;;;;21.04;54.20;100469.31;1768716;79;21465;-49
2022/06/25 05:21:15;;;;;;;7.25;3.40;;;;;;;21.10;54.04;100465.88;1768203;80;21699;-49
2022/06/25 05:23:42;;;;;;;5.22;2.80;;;;;;;21.16;53.85;100465.62;1755932;79;21042;-49
2022/06/25 05:26:08;;;;;;;8.20;3.25;;;;;;;21.23;53.80;100466.54;1764315;79;21632;-50
2022/06/25 05:28:37;;;;;;;6.42;3.00;;;;;;;21.30;53.80;100470.09;1709279;82;21012;-50
2022/06/25 05:31:03;;;;;;;6.72;3.58;;;;;;;21.37;53.18;100468.83;1767436;79;21042;-49
2022/06/25 05:33:32;;;;;;;6.50;2.65;;;;;;;21.43;52.88;100472.58;1769188;79;21201;-49
2022/06/25 05:35:58;;;;;;;6.17;3.12;;;;;;;21.48;52.78;100471.52;1771259;79;21042;-49
2022/06/25 05:38:25;;;;;;;5.30;3.22;;;;;;;21.52;52.72;100469.61;1768235;79;21077;-49
2022/06/25 05:40:51;;;;;;;5.58;3.27;;;;;;;21.58;53.02;100468.52;1765819;79;21067;-50
2022/06/25 05:43:18;;;;;;;8.38;3.22;;;;;;;21.63;52.99;100468.24;1758565;79;21058;-51
2022/06/25 05:45:44;;;;;;;5.47;2.92;;;;;;;21.70;52.79;100470.48;1754473;79;21136;-52
2022/06/25 05:48:11;;;;;;;5.42;3.22;;;;;;;21.76;52.34;100475.56;1747185;80;20996;-51
2022/06/25 05:50:38;;;;;;;5.08;2.95;;;;;;;21.82;52.28;100477.97;1750330;79;21454;-52
2022/06/25 05:53:05;;;;;;;6.92;3.15;;;;;;;21.88;52.56;100474.52;1763942;80;21491;-53
2022/06/25 05:55:31;;;;;;;6.53;2.70;;;;;;;21.97;52.22;100476.05;1756761;79;21525;-50
2022/06/25 05:57:58;;;;;;;5.72;3.00;;;;;;;22.06;52.07;100481.55;1730774;82;21161;-52
2022/06/25 06:00:26;;;;;;;8.50;3.00;;;;;;;22.15;52.05;100486.23;1757501;79;21048;-50
2022/06/25 06:02:52;;;;;;;5.22;2.58;;;;;;;22.24;51.89;100482.40;1765452;79;21470;-51
2022/06/25 06:05:21;;;;;;;5.00;3.25;;;;;;;22.36;51.62;100486.72;1770869;79;21550;-51
2022/06/25 06:07:49;;;;;;;5.42;2.95;;;;;;;22.45;51.36;100488.20;1758168;79;21117;-51
2022/06/25 06:10:16;;;;;;;6.40;2.92;;;;;;;22.52;51.20;100485.55;1762274;80;21891;-53
2022/06/25 06:12:45;;;;;;;5.58;3.15;;;;;;;22.61;50.94;100484.86;1758001;79;21058;-51
2022/06/25 06:15:11;;;;;;;4.85;2.35;;;;;;;22.71;49.86;100488.03;1757695;80;21071;-51
2022/06/25 06:17:38;;;;;;;4.30;2.37;;;;;;;22.77;49.38;100493.91;1759439;79;21109;-53
2022/06/25 06:20:06;;;;;;;6.67;2.98;;;;;;;22.85;49.64;100489.39;1759631;79;21070;-50
2022/06/25 06:22:33;;;;;;;5.90;2.65;;;;;;;22.93;49.07;100490.55;1767946;79;21716;-50
2022/06/25 06:24:59;;;;;;;4.87;2.60;;;;;;;23.00;49.17;100493.59;1758015;79;21097;-49
2022/06/25 06:27:26;;;;;;;6.10;2.80;;;;;;;23.05;48.59;100490.80;1757544;79;21114;-49
2022/06/25 06:29:52;;;;;;;6.25;2.52;;;;;;;23.07;48.56;100493.63;1756463;79;21094;-49
2022/06/25 06:32:19;;;;;;;6.10;2.83;;;;;;;23.13;48.58;100490.15;1754198;79;21114;-49
2022/06/25 06:34:45;;;;;;;5.25;2.60;;;;;;;23.20;48.56;100494.20;1756876;79;21149;-49
2022/06/25 06:37:12;;;;;;;6.53;3.45;;;;;;;23.27;49.07;100488.31;1761661;79;21039;-49
2022/06/25 06:39:39;;;;;;;5.75;2.60;;;;;;;23.37;49.72;100494.11;1757850;80;21150;-51
2022/06/25 06:42:05;;;;;;;5.83;2.65;;;;;;;23.46;49.28;100487.20;1760361;80;22476;-50
2022/06/25 06:44:32;;;;;;;6.22;2.72;;;;;;;23.52;48.94;100489.08;1750958;80;21005;-49
2022/06/25 06:46:58;;;;;;;4.90;2.12;;;;;;;23.57;49.08;100482.57;1752803;80;21125;-49
2022/06/25 06:49:25;;;;;;;4.85;2.25;;;;;;;23.66;48.94;100482.66;1752847;80;21145;-49
2022/06/25 06:51:53;;;;;;;4.60;2.50;;;;;;;23.74;49.14;100482.45;1740902;80;21584;-49
2022/06/25 06:54:20;;;;;;;10.25;2.75;;;;;;;23.81;48.92;100489.17;1744671;80;21752;-49
2022/06/25 06:56:46;;;;;;;4.72;2.72;;;;;;;23.88;49.04;100491.36;1752091;80;21157;-49
2022/06/25 06:59:13;;;;;;;8.13;2.50;;;;;;;23.98;49.14;100492.81;1751651;80;23185;-49
2022/06/25 07:01:41;;;;;;;5.70;2.95;;;;;;;24.05;49.03;100500.34;1752460;80;21066;-49
2022/06/25 07:04:08;;;;;;;7.65;2.40;;;;;;;24.11;48.59;100505.70;1752206;81;21483;-49
2022/06/25 07:06:35;;;;;;;4.33;2.42;;;;;;;24.19;48.53;100501.98;1753372;80;21541;-48
2022/06/25 07:09:03;;;;;;;6.10;2.67;;;;;;;24.26;47.89;100498.75;1752362;81;21142;-50
2022/06/25 07:11:30;;;;;;;5.10;2.47;;;;;;;24.36;47.88;100500.16;1752527;80;21162;-50
2022/06/25 07:14:04;;;;;;;4.92;2.25;;;;;;;24.47;47.16;100500.34;1756399;80;21031;-49
2022/06/25 07:16:33;;;;;;;6.20;2.15;;;;;;;24.56;46.95;100499.64;1747215;80;21067;-49
2022/06/25 07:19:00;;;;;;;4.40;1.87;;;;;;;24.69;47.83;100505.47;1754198;80;21067;-49
2022/06/25 07:21:27;;;;;;;5.05;2.42;;;;;;;24.79;47.04;100506.38;1749699;81;21039;-50
2022/06/25 07:23:53;;;;;;;5.67;2.40;;;;;;;24.86;46.53;100504.46;1742314;80;21131;-50
2022/06/25 07:26:21;;;;;;;5.15;2.27;;;;;;;24.92;46.31;100504.96;1760069;80;21119;-50
2022/06/25 07:28:47;;;;;;;4.15;2.27;;;;;;;25.01;45.55;100502.31;1751179;80;21070;-52
2022/06/25 07:31:14;;;;;;;5.25;2.12;;;;;;;25.07;45.24;100501.99;1757605;80;21078;-50
2022/06/25 07:33:41;;;;;;;4.95;2.10;;;;;;;25.12;45.48;100492.74;1760496;80;21055;-49
2022/06/25 07:36:07;;;;;;;7.15;2.47;;;;;;;25.19;45.78;100492.70;1752248;80;21236;-49
2022/06/25 07:38:34;;;;;;;4.10;1.87;;;;;;;25.25;44.45;100489.16;1752074;80;21051;-49
2022/06/25 07:41:01;;;;;;;5.25;2.58;;;;;;;25.29;44.09;100495.77;1762428;80;21110;-50
2022/06/25 07:43:28;;;;;;;4.20;1.90;;;;;;;25.31;42.86;100487.48;1751998;79;21086;-49
2022/06/25 07:45:55;;;;;;;5.25;2.20;;;;;;;25.31;42.64;100493.69;1761492;79;21137;-49
2022/06/25 07:48:22;;;;;;;4.67;2.02;;;;;;;25.30;42.62;100492.05;1760793;79;21154;-49
2022/06/25 07:53:34;;;;;;;6.28;2.42;;;;;;;25.41;42.26;100498.59;1725167;81;21473;-49
2022/06/25 07:56:01;;;;;;;6.45;2.60;;;;;;;25.49;42.64;100497.52;1751288;80;21454;-49
2022/06/25 07:58:28;;;;;;;4.17;2.20;;;;;;;25.57;42.81;100498.06;1700651;82;21101;-50
2022/06/25 08:00:55;;;;;;;6.75;2.55;;;;;;;25.69;42.19;100500.88;1751197;79;21153;-50
2022/06/25 08:03:21;;;;;;;5.80;2.15;;;;;;;25.78;42.09;100494.67;1763011;79;21038;-49
2022/06/25 08:05:48;;;;;;;8.93;2.20;;;;;;;25.81;41.42;100490.73;1752835;80;21062;-49
2022/06/25 08:08:14;;;;;;;6.65;2.27;;;;;;;25.80;42.37;100495.80;1754247;79;21075;-49
2022/06/25 08:10:41;;;;;;;4.92;2.45;;;;;;;25.78;41.66;100500.88;1751589;79;21098;-49
2022/06/25 08:13:08;;;;;;;3.98;1.87;;;;;;;25.73;41.34;100495.33;1749156;79;21138;-50
2022/06/25 08:15:36;;;;;;;5.65;2.33;;;;;;;25.73;41.97;100496.67;1751091;79;21090;-51
2022/06/25 08:18:02;;;;;;;4.17;2.20;;;;;;;25.77;42.15;100500.59;1750538;79;21109;-49
2022/06/25 08:20:29;;;;;;;4.05;2.02;;;;;;;25.76;41.06;100491.38;1758169;79;21597;-50
2022/06/25 08:22:56;;;;;;;4.33;2.20;;;;;;;25.67;41.36;100497.58;1750179;80;21544;-49
2022/06/25 08:25:22;;;;;;;5.22;2.20;;;;;;;25.55;41.62;100498.81;1750735;79;21182;-50
2022/06/25 08:27:51;;;;;;;4.53;2.35;;;;;;;25.46;41.96;100495.25;1760361;79;21094;-50
2022/06/25 08:30:19;;;;;;;4.72;2.17;;;;;;;25.43;42.13;100491.64;1752618;79;21502;-50
2022/06/25 08:32:45;;;;;;;4.70;2.25;;;;;;;25.48;42.39;100489.12;1768798;79;21291;-50
2022/06/25 08:35:12;;;;;;;4.33;2.17;;;;;;;25.56;42.83;100490.20;1760117;79;21517;-50
2022/06/25 08:37:43;;;;;;;3.80;1.90;;;;;;;25.61;41.76;100494.41;1760200;79;21830;-49
2022/06/25 08:40:12;;;;;;;4.53;2.12;;;;;;;25.58;41.42;100496.19;1763233;79;21137;-48
2022/06/25 08:55:54;;;;;;;4.97;2.08;;;;;;;26.42;40.63;100493.14;1785178;78;22084;-50
2022/06/25 08:58:21;;;;;;;4.60;2.30;;;;;;;26.55;39.21;100497.03;1785963;78;21441;-50
2022/06/25 09:00:48;;;;;;;8.53;2.17;;;;;;;26.50;38.92;100495.00;1789994;78;21140;-49
2022/06/25 09:03:14;;;;;;;4.28;1.87;;;;;;;26.40;39.08;100497.41;1783786;79;21085;-50
2022/06/25 09:05:43;;;;;;;5.30;2.10;;;;;;;26.36;39.15;100494.87;1779329;78;21027;-51
2022/06/25 09:08:12;;;;;;;4.40;2.30;;;;;;;26.35;39.42;100492.40;1781326;78;21008;-51
2022/06/25 09:10:42;;;;;;;3.98;1.87;;;;;;;26.39;40.04;100493.05;1784780;78;21104;-51
2022/06/25 09:13:10;;;;;;;5.70;2.30;;;;;;;26.40;39.38;100488.50;1787241;79;21077;-51
2022/06/25 09:15:40;;;;;;;4.22;2.10;;;;;;;26.38;39.62;100486.03;1782336;78;21023;-50
2022/06/25 09:18:15;;;;;;;5.78;2.95;;;;;;;26.39;39.75;100489.54;1777341;78;21354;-51
2022/06/25 09:20:59;;;;;;;;;;;;;;;26.38;38.94;100495.47;1790640;78;21332;-51
2022/06/25 09:23:32;;;;;;;4.40;2.27;;;;;;;26.40;39.71;100502.80;1785243;78;20215;-50
2022/06/25 09:26:10;;;;;;;4.45;2.35;;;;;;;26.46;40.57;100499.72;1743462;80;21131;-50
2022/06/25 09:28:42;;;;;;;7.35;3.45;;;;;;;26.53;40.40;100497.80;1746432;80;21038;-51
2022/06/25 09:31:09;;;;;;;6.17;2.62;;;;;;;26.59;40.80;100510.36;1748546;80;21065;-51
2022/06/25 09:33:38;;;;;;;13.18;7.75;;;;;;;26.61;39.88;100506.09;1687549;81;21564;-52
2022/06/25 09:36:07;;;;;;;4.87;2.70;;;;;;;26.54;39.19;100509.41;1718919;81;21118;-51
2022/06/25 09:38:33;;;;;;;5.50;3.15;;;;;;;26.38;39.81;100499.52;1692947;81;21119;-50
2022/06/25 09:41:00;;;;;;;7.97;4.35;;;;;;;26.24;39.79;100493.45;1753041;80;21013;-50
2022/06/25 09:43:31;;;;;;;7.58;3.60;;;;;;;26.13;40.11;100499.57;1721821;81;21137;-51
2022/06/25 09:46:02;;;;;;;6.30;3.80;;;;;;;26.06;39.83;100492.08;1721513;81;21173;-50
2022/06/25 09:48:31;;;;;;;6.70;2.83;;;;;;;26.04;40.00;100492.30;1720075;81;21109;-51
2022/06/25 09:51:15;;;;;;;5.15;2.83;;;;;;;26.09;40.71;100491.61;1715258;81;21141;-50
2022/06/25 09:53:48;;;;;;;6.55;2.30;;;;;;;26.21;40.96;100489.00;1726010;81;21014;-52
2022/06/25 09:56:21;;;;;;;4.42;2.30;;;;;;;26.42;40.88;100490.44;1722924;81;21121;-50
2022/06/25 09:58:48;;;;;;;5.17;2.62;;;;;;;26.55;39.82;100483.55;1720594;81;21575;-50
2022/06/25 10:01:17;;;;;;;6.30;2.45;;;;;;;26.65;39.55;100489.80;1727427;81;21489;-50
2022/06/25 10:03:44;;;;;;;4.80;2.00;;;;;;;26.70;39.58;100493.98;1724338;81;21114;-51
2022/06/25 10:06:14;;;;;;;4.70;2.45;;;;;;;26.68;38.89;100498.79;1719684;81;21540;-50
2022/06/25 10:08:48;;;;;;;4.95;2.20;;;;;;;26.61;39.19;100497.99;1720024;82;21133;-50
2022/06/25 10:11:16;;;;;;;5.08;2.35;;;;;;;26.59;39.39;100492.82;1744081;80;21075;-50
2022/06/25 10:13:43;;;;;;;4.67;2.08;;;;;;;26.58;38.78;100493.05;1748219;80;21639;-51
2022/06/25 10:16:09;;;;;;;4.50;2.45;;;;;;;26.53;38.89;100490.20;1723622;81;21962;-51
2022/06/25 10:18:36;;;;;;;5.87;2.42;;;;;;;26.53;39.08;100490.20;1722787;82;21137;-51
2022/06/25 10:21:03;;;;;;;6.83;2.15;;;;;;;26.53;39.21;100488.34;1717977;82;21068;-50
2022/06/25 10:23:29;;;;;;;5.87;2.83;;;;;;;26.56;38.35;100486.52;1713057;81;21155;-50
2022/06/25 10:25:56;;;;;;;6.25;2.50;;;;;;;26.57;38.94;100485.48;1718535;81;21097;-51
2022/06/25 10:28:28;;;;;;;4.78;2.40;;;;;;;26.55;38.40;100486.78;1717603;82;21145;-50
2022/06/25 10:30:58;;;;;;;4.47;2.20;;;;;;;26.53;38.90;100491.05;1721685;81;21074;-51
2022/06/25 10:33:28;;;;;;;5.90;2.55;;;;;;;26.56;39.40;100494.62;1719649;82;21073;-51
2022/06/25 10:36:04;;;;;;;6.10;2.35;;;;;;;26.66;40.24;100490.08;1752909;80;21082;-51
2022/06/25 10:38:27;;;;;;;5.30;2.87;;;;;;;26.77;39.91;100495.25;1760025;80;20991;-50
2022/06/25 10:43:55;;;;;;;8.03;2.60;;;;;;;26.85;39.61;100491.70;1707561;82;21420;-50
2022/06/25 10:46:36;;;;;;;5.30;2.85;;;;;;;26.97;39.96;100486.35;1740639;80;21489;-50
2022/06/25 10:49:10;;;;;;;5.28;2.75;;;;;;;27.07;39.80;100491.20;1724805;81;21137;-50
2022/06/25 10:51:43;;;;;;;4.95;2.50;;;;;;;27.13;39.38;100494.86;1723651;81;21054;-50
2022/06/25 10:54:25;;;;;;;4.87;2.50;;;;;;;27.15;39.38;100499.49;1725249;81;22056;-52
2022/06/25 10:56:54;;;;;;;5.12;2.50;;;;;;;27.16;38.86;100489.81;1721446;82;21037;-51
2022/06/25 10:59:41;;;;;;;4.17;2.08;;;;;;;27.23;39.33;100487.86;1753098;80;20975;-50
2022/06/25 11:02:11;;;;;;;5.35;2.62;;;;;;;27.37;40.15;100487.66;1750235;80;21124;-49
2022/06/25 11:04:38;;;;;;;7.30;2.72;;;;;;;27.50;39.58;100482.05;1743763;80;21049;-50
2022/06/25 11:07:12;;;;;;;4.40;2.20;;;;;;;27.55;38.19;100486.77;1716173;82;21136;-50
2022/06/25 11:09:40;;;;;;;3.87;2.10;;;;;;;27.52;37.93;100486.72;1747833;80;21073;-49
2022/06/25 11:12:07;;;;;;;6.03;2.30;;;;;;;27.47;37.67;100481.19;1746967;80;21038;-49
2022/06/25 11:14:34;;;;;;;4.62;2.58;;;;;;;27.47;38.00;100487.09;1747817;80;21039;-49
2022/06/25 11:17:07;;;;;;;5.37;2.47;;;;;;;27.53;38.51;100484.29;1754662;80;22712;-49
2022/06/25 11:19:34;;;;;;;4.50;2.33;;;;;;;27.67;37.35;100478.66;1751960;80;21133;-49
2022/06/25 11:22:04;;;;;;;5.58;2.60;;;;;;;27.78;37.69;100471.91;1732165;81;21117;-50
2022/06/25 11:24:31;;;;;;;6.00;2.90;;;;;;;27.88;37.02;100472.69;1718010;81;20995;-49
2022/06/25 11:29:50;;;;;;;5.08;2.42;;;;;;;27.86;36.15;100471.28;1752164;80;21073;-49
2022/06/25 11:32:22;;;;;;;5.15;2.67;;;;;;;27.84;35.94;100471.52;1741606;80;21841;-49
2022/06/25 11:34:53;;;;;;;4.97;2.40;;;;;;;27.80;36.27;100471.14;1714932;81;21110;-52
2022/06/25 11:37:20;;;;;;;4.62;2.52;;;;;;;27.83;36.65;100473.92;1722842;81;21403;-52
2022/06/25 11:39:47;;;;;;;4.95;2.22;;;;;;;27.91;37.15;100475.46;1748738;80;21040;-49
2022/06/25 11:42:14;;;;;;;4.47;2.45;;;;;;;28.02;37.54;100472.47;1750210;80;21057;-49
2022/06/25 11:44:52;;;;;;;8.00;2.40;;;;;;;28.15;37.27;100473.04;1743535;80;21367;-49
2022/06/25 11:47:22;;;;;;;5.12;3.08;;;;;;;28.27;35.42;100468.14;1748630;80;21062;-48
2022/06/25 11:49:49;;;;;;;4.70;2.33;;;;;;;28.26;34.89;100472.75;1751875;80;21104;-49
2022/06/25 11:52:18;;;;;;;4.67;2.70;;;;;;;28.27;35.13;100470.31;1748494;80;21537;-49
2022/06/25 11:54:45;;;;;;;3.87;2.15;;;;;;;28.31;35.75;100468.80;1728837;81;21091;-48
2022/06/25 11:57:26;;;;;;;4.17;2.08;;;;;;;28.45;36.16;100463.93;1727963;81;21139;-49
2022/06/25 11:59:54;;;;;;;7.12;2.67;;;;;;;28.58;35.11;100460.17;1725822;81;21058;-48
2022/06/25 12:02:22;;;;;;;5.97;2.00;;;;;;;28.62;35.05;100464.02;1705324;82;22068;-48